createdAt,value
2023-05-03T00:00:47.628Z,5.50
2023-05-03T00:03:53.771Z,5.40
2023-05-03T00:06:56.696Z,5.10
2023-05-03T00:09:59.565Z,5.47
2023-05-03T00:13:02.688Z,5.40
2023-05-03T00:16:05.991Z,5.80
2023-05-03T00:19:17.688Z,5.30
2023-05-03T00:22:27.574Z,4.57
2023-05-03T00:25:30.329Z,5.50
2023-05-03T00:28:33.037Z,4.97
2023-05-03T00:31:36.123Z,5.53
2023-05-03T00:34:40.306Z,5.87
2023-05-03T00:37:43.023Z,5.33
2023-05-03T00:40:46.281Z,5.60
2023-05-03T00:43:48.942Z,6.17
2023-05-03T00:46:52.753Z,6.07
2023-05-03T00:49:57.256Z,5.50
2023-05-03T00:53:00.039Z,5.10
2023-05-03T00:56:03.660Z,4.97
2023-05-03T00:59:07.273Z,5.23
2023-05-03T01:02:10.068Z,5.50
2023-05-03T01:05:14.304Z,5.13
2023-05-03T01:08:26.661Z,5.00
2023-05-03T01:11:38.942Z,5.03
2023-05-03T01:14:51.041Z,4.80
2023-05-03T01:18:03.066Z,4.77
2023-05-03T01:21:09.252Z,4.50
2023-05-03T01:24:18.975Z,4.43
2023-05-03T01:27:23.029Z,4.50
2023-05-03T01:30:29.052Z,4.23
2023-05-03T01:33:41.457Z,3.97
2023-05-03T01:36:46.190Z,4.33
2023-05-03T01:39:55.340Z,4.20
2023-05-03T01:43:00.783Z,4.40
2023-05-03T01:46:03.833Z,4.20
2023-05-03T01:49:06.589Z,4.47
2023-05-03T01:52:09.455Z,4.47
2023-05-03T01:55:12.304Z,4.60
2023-05-03T01:58:16.413Z,5.30
2023-05-03T02:01:19.899Z,5.47
2023-05-03T02:04:22.732Z,5.33
2023-05-03T02:07:26.777Z,5.80
2023-05-03T02:10:29.447Z,5.10
2023-05-03T02:13:39.964Z,5.90
2023-05-03T02:16:43.146Z,5.90
2023-05-03T02:19:45.874Z,6.20
2023-05-03T02:22:48.616Z,5.60
2023-05-03T02:25:51.423Z,6.03
2023-05-03T02:28:55.954Z,6.37
2023-05-03T02:31:58.632Z,6.67
2023-05-03T02:35:01.765Z,7.37
2023-05-03T02:38:04.484Z,6.73
2023-05-03T02:41:07.439Z,7.30
2023-05-03T02:44:11.781Z,6.30
2023-05-03T02:47:14.643Z,6.37
2023-05-03T02:50:17.424Z,5.90
2023-05-03T02:53:20.102Z,5.80
2023-05-03T02:56:22.797Z,5.70
2023-05-03T02:59:26.828Z,5.27
2023-05-03T03:02:30.332Z,5.50
2023-05-03T03:05:33.170Z,5.80
2023-05-03T03:08:37.462Z,5.93
2023-05-03T03:11:40.156Z,6.80
2023-05-03T03:14:45.817Z,6.20
2023-05-03T03:17:48.574Z,6.63
2023-05-03T03:20:53.621Z,5.90
2023-05-03T03:23:56.480Z,5.73
2023-05-03T03:26:59.206Z,6.53
2023-05-03T03:30:03.515Z,5.90
2023-05-03T03:33:09.402Z,6.67
2023-05-03T03:36:12.161Z,6.43
2023-05-03T03:39:14.882Z,6.90
2023-05-03T03:42:19.126Z,6.70
2023-05-03T03:45:23.870Z,6.60
2023-05-03T03:48:26.609Z,6.33
2023-05-03T03:51:29.410Z,6.40
2023-05-03T03:54:32.249Z,6.10
2023-05-03T03:57:34.952Z,6.50
2023-05-03T04:00:39.451Z,5.73
2023-05-03T04:03:47.525Z,7.80
2023-05-03T04:06:50.473Z,7.37
2023-05-03T04:09:53.218Z,6.37
2023-05-03T04:12:56.022Z,6.07
2023-05-03T04:16:02.143Z,7.23
2023-05-03T04:19:05.987Z,6.60
2023-05-03T04:22:08.618Z,5.70
2023-05-03T04:25:14.060Z,6.60
2023-05-03T04:28:16.820Z,5.93
2023-05-03T04:31:22.141Z,5.57
2023-05-03T04:34:30.238Z,9.50
2023-05-03T04:37:35.318Z,6.87
2023-05-03T04:40:38.362Z,7.40
2023-05-03T04:43:41.032Z,5.97
2023-05-03T04:46:45.151Z,6.33
2023-05-03T04:49:47.904Z,5.77
2023-05-03T04:52:50.689Z,6.37
2023-05-03T04:55:53.391Z,6.07
2023-05-03T04:58:56.150Z,6.03
2023-05-03T05:02:00.398Z,6.33
2023-05-03T05:05:06.286Z,7.20
2023-05-03T05:08:11.790Z,7.83
2023-05-03T05:11:15.697Z,7.90
2023-05-03T05:14:18.483Z,9.83
2023-05-03T05:17:22.620Z,7.20
2023-05-03T05:20:25.326Z,6.93
2023-05-03T05:23:28.027Z,7.30
2023-05-03T05:26:31.019Z,8.10
2023-05-03T05:29:34.460Z,8.37
2023-05-03T05:32:38.644Z,8.43
2023-05-03T05:35:41.447Z,9.93
2023-05-03T05:38:44.214Z,9.10
2023-05-03T05:41:46.969Z,8.23
2023-05-03T05:44:49.651Z,9.07
2023-05-03T05:47:53.736Z,9.17
2023-05-03T05:50:58.685Z,7.47
2023-05-03T05:54:01.388Z,7.00
2023-05-03T05:57:04.110Z,7.00
2023-05-03T06:00:14.804Z,7.20
2023-05-03T06:03:19.468Z,8.07
2023-05-03T06:06:22.545Z,6.90
2023-05-03T06:09:25.407Z,6.50
2023-05-03T06:12:28.435Z,5.67
2023-05-03T06:15:31.574Z,5.40
2023-05-03T06:18:35.641Z,4.60
2023-05-03T06:21:38.337Z,4.80
2023-05-03T06:24:41.181Z,4.73
2023-05-03T06:27:43.988Z,4.20
2023-05-03T06:30:50.439Z,3.17
2023-05-03T06:33:54.585Z,3.80
2023-05-03T06:36:57.541Z,3.77
2023-05-03T06:40:00.531Z,3.83
2023-05-03T06:43:03.703Z,3.47
2023-05-03T06:46:08.891Z,3.30
2023-05-03T06:49:13.021Z,2.90
2023-05-03T06:52:16.358Z,2.87
2023-05-03T06:55:19.980Z,2.60
2023-05-03T06:58:22.693Z,3.03
2023-05-03T07:01:25.460Z,3.30
2023-05-03T07:04:30.394Z,3.00
2023-05-03T07:07:34.271Z,2.03
2023-05-03T07:10:37.006Z,2.80
2023-05-03T07:13:39.923Z,2.80
2023-05-03T07:16:45.566Z,2.87
2023-05-03T07:19:50.869Z,3.00
2023-05-03T07:22:55.755Z,3.57
2023-05-03T07:25:59.392Z,3.77
2023-05-03T07:29:02.107Z,3.37
2023-05-03T07:32:05.657Z,2.77
2023-05-03T07:35:10.928Z,2.97
2023-05-03T07:38:16.819Z,3.10
2023-05-03T07:41:19.743Z,2.90
2023-05-03T07:44:22.438Z,3.33
2023-05-03T07:47:25.242Z,2.80
2023-05-03T07:50:29.299Z,2.90
2023-05-03T07:53:32.009Z,2.93
2023-05-03T07:56:34.789Z,3.20
2023-05-03T07:59:38.725Z,3.50
2023-05-03T08:02:41.979Z,2.90
2023-05-03T08:05:48.227Z,3.10
2023-05-03T08:08:51.113Z,3.17
2023-05-03T08:11:53.843Z,3.27
2023-05-03T08:14:57.353Z,3.27
2023-05-03T08:18:02.306Z,3.63
2023-05-03T08:21:08.028Z,2.80
2023-05-03T08:24:10.834Z,3.80
2023-05-03T08:27:13.554Z,3.30
2023-05-03T08:30:16.717Z,3.30
2023-05-03T08:33:19.381Z,4.13
2023-05-03T08:36:23.539Z,3.60
2023-05-03T08:39:27.101Z,3.10
2023-05-03T08:42:31.988Z,3.70
2023-05-03T08:45:34.667Z,3.80
2023-05-03T08:48:37.361Z,3.97
2023-05-03T08:51:42.369Z,3.53
2023-05-03T08:54:46.687Z,3.60
2023-05-03T08:57:52.115Z,4.00
2023-05-03T09:00:54.905Z,3.40
2023-05-03T09:03:57.778Z,3.43
2023-05-03T09:07:10.430Z,3.50
2023-05-03T09:10:24.132Z,3.53
2023-05-03T09:13:32.071Z,3.23
2023-05-03T09:16:35.005Z,3.50
2023-05-03T09:19:51.136Z,3.33
2023-05-03T09:22:55.269Z,3.80
2023-05-03T09:25:59.168Z,3.33
2023-05-03T09:29:03.628Z,3.20
2023-05-03T09:32:08.457Z,3.90
2023-05-03T09:35:11.346Z,3.40
2023-05-03T09:38:27.820Z,3.27
2023-05-03T09:41:34.104Z,3.40
2023-05-03T09:44:51.460Z,3.00
2023-05-03T09:47:55.833Z,3.73
2023-05-03T09:50:59.050Z,3.77
2023-05-03T09:54:04.532Z,3.47
2023-05-03T09:57:08.854Z,3.73
2023-05-03T10:00:13.804Z,19.83
2023-05-03T10:03:24.682Z,3.80
2023-05-03T10:06:33.034Z,3.83
2023-05-03T10:09:40.958Z,3.63
2023-05-03T10:12:48.850Z,3.70
2023-05-03T10:15:57.208Z,3.10
2023-05-03T10:19:08.298Z,4.60
2023-05-03T10:22:12.355Z,3.07
2023-05-03T10:25:16.809Z,3.37
2023-05-03T10:28:19.570Z,3.17
2023-05-03T10:31:46.242Z,3.47
2023-05-03T10:34:49.077Z,3.67
2023-05-03T10:37:52.844Z,3.57
2023-05-03T10:40:59.115Z,3.67
2023-05-03T10:44:02.302Z,4.03
2023-05-03T10:47:13.818Z,3.60
2023-05-03T10:50:27.335Z,3.57
2023-05-03T10:53:41.180Z,3.40
2023-05-03T10:56:57.208Z,3.53
2023-05-03T11:00:03.137Z,3.40
2023-05-03T11:03:14.221Z,3.47
2023-05-03T11:06:31.657Z,3.30
2023-05-03T11:09:35.447Z,3.87
2023-05-03T11:12:39.498Z,3.70
2023-05-03T11:15:43.381Z,2.80
2023-05-03T11:18:46.688Z,3.20
2023-05-03T11:21:49.521Z,3.20
2023-05-03T11:24:52.359Z,3.60
2023-05-03T11:27:56.462Z,3.33
2023-05-03T11:30:59.237Z,3.30
2023-05-03T11:34:02.278Z,3.30
2023-05-03T11:37:05.292Z,3.20
2023-05-03T11:40:15.531Z,3.20
2023-05-03T11:43:19.614Z,3.30
2023-05-03T11:46:26.486Z,3.30
2023-05-03T11:49:29.423Z,2.87
2023-05-03T11:52:32.150Z,2.77
2023-05-03T11:55:34.926Z,2.80
2023-05-03T11:58:51.298Z,2.87
2023-05-03T12:01:55.744Z,2.73
2023-05-03T12:04:58.671Z,5.37
2023-05-03T12:08:02.817Z,3.17
2023-05-03T12:11:09.524Z,2.83
2023-05-03T12:14:15.591Z,3.20
2023-05-03T12:17:38.774Z,2.60
2023-05-03T12:21:29.274Z,2.50
2023-05-03T12:24:06.656Z,2.60
2023-05-03T12:27:09.588Z,3.17
2023-05-03T12:33:21.895Z,2.30
2023-05-03T12:36:26.560Z,2.37
2023-05-03T12:39:31.653Z,2.17
2023-05-03T12:42:35.639Z,2.63
2023-05-03T12:45:40.796Z,2.30
2023-05-03T12:48:46.517Z,2.50
2023-05-03T12:52:04.855Z,2.57
2023-05-03T12:55:17.818Z,2.00
2023-05-03T13:04:57.214Z,2.10
2023-05-03T13:07:59.191Z,1.97
2023-05-03T13:11:02.824Z,2.20
2023-05-03T13:14:05.886Z,2.17
2023-05-03T13:17:10.343Z,2.40
2023-05-03T13:20:14.373Z,2.33
2023-05-03T13:23:17.016Z,2.00
2023-05-03T13:26:19.872Z,1.90
2023-05-03T13:29:24.152Z,1.93
2023-05-03T13:32:28.402Z,1.40
2023-05-03T13:35:31.888Z,3.10
2023-05-03T13:38:34.787Z,2.70
2023-05-03T13:41:38.762Z,2.20
2023-05-03T13:44:42.540Z,4.33
2023-05-03T13:48:13.965Z,2.03
2023-05-03T13:51:10.427Z,2.00
2023-05-03T13:54:13.187Z,1.70
2023-05-03T13:57:16.018Z,1.67
2023-05-03T14:00:20.753Z,1.50
2023-05-03T14:03:25.049Z,1.67
2023-05-03T14:06:29.299Z,2.47
2023-05-03T14:09:33.146Z,2.00
2023-05-03T14:12:37.151Z,1.90
2023-05-03T14:15:40.730Z,1.43
2023-05-03T14:18:45.206Z,1.70
2023-05-03T14:21:49.809Z,1.70
2023-05-03T14:24:52.725Z,2.30
2023-05-03T14:27:55.555Z,1.80
2023-05-03T14:30:58.379Z,1.67
2023-05-03T14:34:02.521Z,2.10
2023-05-03T14:37:05.275Z,2.07
2023-05-03T14:40:09.304Z,1.77
2023-05-03T14:43:12.028Z,1.43
2023-05-03T14:46:14.915Z,1.60
2023-05-03T14:49:19.226Z,1.73
2023-05-03T14:52:21.950Z,1.60
2023-05-03T14:55:24.730Z,1.87
2023-05-03T14:58:27.641Z,1.83
2023-05-03T15:01:30.463Z,1.43
2023-05-03T15:04:37.013Z,1.63
2023-05-03T15:07:39.906Z,1.40
2023-05-03T15:10:44.412Z,1.80
2023-05-03T15:13:47.204Z,1.60
2023-05-03T15:16:50.036Z,1.57
2023-05-03T15:19:54.041Z,1.47
2023-05-03T15:22:56.927Z,1.37
2023-05-03T15:25:59.586Z,1.70
2023-05-03T15:29:02.354Z,1.50
2023-05-03T15:32:05.565Z,1.60
2023-05-03T15:35:10.345Z,1.60
2023-05-03T15:38:13.120Z,1.50
2023-05-03T15:41:15.827Z,1.50
2023-05-03T15:44:18.488Z,1.47
2023-05-03T15:47:22.606Z,1.33
2023-05-03T15:50:26.637Z,1.43
2023-05-03T15:53:29.319Z,1.70
2023-05-03T15:56:32.320Z,1.50
2023-05-03T15:59:35.113Z,1.57
2023-05-03T16:02:38.432Z,2.00
2023-05-03T16:05:42.516Z,1.87
2023-05-03T16:08:45.389Z,1.60
2023-05-03T16:11:48.899Z,1.50
2023-05-03T16:14:52.854Z,1.67
2023-05-03T16:17:55.725Z,1.70
2023-05-03T16:21:02.939Z,2.03
2023-05-03T16:24:06.532Z,1.40
2023-05-03T16:27:11.571Z,1.87
2023-05-03T16:30:15.179Z,1.50
2023-05-03T16:33:18.341Z,1.50
2023-05-03T16:36:24.991Z,1.70
2023-05-03T16:39:28.398Z,1.53
2023-05-03T16:42:32.242Z,1.70
2023-05-03T16:45:35.084Z,1.40
2023-05-03T16:48:37.792Z,1.70
2023-05-03T16:51:41.889Z,2.07
2023-05-03T16:54:44.632Z,1.80
2023-05-03T16:57:50.022Z,1.80
2023-05-03T17:00:53.478Z,1.80
2023-05-03T17:03:56.426Z,1.70
2023-05-03T17:07:04.715Z,2.00
2023-05-03T17:10:08.736Z,1.73
2023-05-03T17:13:11.721Z,1.40
2023-05-03T17:16:15.870Z,1.73
2023-05-03T17:19:19.521Z,1.70
2023-05-03T17:22:23.635Z,1.47
2023-05-03T17:25:26.468Z,1.73
2023-05-03T17:28:29.221Z,1.67
2023-05-03T17:31:32.075Z,1.60
2023-05-03T17:34:34.914Z,1.50
2023-05-03T17:37:39.100Z,1.63
2023-05-03T17:40:43.272Z,2.00
2023-05-03T17:43:46.259Z,1.47
2023-05-03T17:46:49.069Z,1.70
2023-05-03T17:49:51.983Z,1.60
2023-05-03T17:52:58.904Z,1.60
2023-05-03T17:56:01.695Z,1.40
2023-05-03T17:59:04.386Z,1.50
2023-05-03T18:02:07.561Z,1.57
2023-05-03T18:05:11.018Z,1.30
2023-05-03T18:08:15.082Z,1.60
2023-05-03T18:11:17.757Z,1.37
2023-05-03T18:14:22.766Z,1.57
2023-05-03T18:17:25.774Z,1.23
2023-05-03T18:20:28.730Z,1.20
2023-05-03T18:23:33.679Z,2.00
2023-05-03T18:26:36.486Z,1.57
2023-05-03T18:29:39.232Z,2.33
2023-05-03T18:32:42.264Z,1.70
2023-05-03T18:35:48.391Z,2.10
2023-05-03T18:38:53.767Z,2.57
2023-05-03T18:41:57.060Z,6.07
2023-05-03T18:44:59.783Z,2.60
2023-05-03T18:48:02.484Z,1.70
2023-05-03T18:51:05.633Z,2.00
2023-05-03T18:54:10.410Z,1.67
2023-05-03T18:57:13.551Z,1.70
2023-05-03T19:00:18.461Z,1.70
2023-05-03T19:03:21.190Z,1.63
2023-05-03T19:06:24.261Z,2.37
2023-05-03T19:09:28.458Z,2.43
2023-05-03T19:12:31.483Z,2.40
2023-05-03T19:15:34.384Z,1.90
2023-05-03T19:18:39.971Z,2.10
2023-05-03T19:21:43.821Z,1.67
2023-05-03T19:24:48.017Z,1.70
2023-05-03T19:27:50.861Z,3.23
2023-05-03T19:30:54.300Z,1.70
2023-05-03T19:33:57.141Z,1.70
2023-05-03T19:36:59.822Z,2.70
2023-05-03T19:40:04.878Z,2.70
2023-05-03T19:43:08.323Z,2.90
2023-05-03T19:46:11.124Z,2.80
2023-05-03T19:49:13.946Z,2.80
2023-05-03T19:52:16.689Z,3.00
2023-05-03T19:55:20.905Z,2.80
2023-05-03T19:58:23.642Z,2.83
2023-05-03T20:01:26.786Z,2.80
2023-05-03T20:04:29.615Z,3.43
2023-05-03T20:07:32.565Z,3.13
2023-05-03T20:10:37.171Z,2.10
2023-05-03T20:13:39.909Z,2.77
2023-05-03T20:16:43.289Z,3.00
2023-05-03T20:19:46.493Z,3.20
2023-05-03T20:22:49.702Z,3.30
2023-05-03T20:25:54.087Z,2.23
2023-05-03T20:28:57.277Z,2.17
2023-05-03T20:32:00.332Z,2.63
2023-05-03T20:35:04.858Z,2.53
2023-05-03T20:38:07.668Z,2.10
2023-05-03T20:41:11.763Z,1.93
2023-05-03T20:44:14.813Z,2.10
2023-05-03T20:47:17.593Z,2.13
2023-05-03T20:50:20.881Z,2.50
2023-05-03T20:53:23.647Z,2.50
2023-05-03T20:56:27.770Z,2.87
2023-05-03T20:59:30.832Z,2.60
2023-05-03T21:02:33.600Z,2.40
2023-05-03T21:05:36.606Z,2.77
2023-05-03T21:08:39.333Z,2.63
2023-05-03T21:11:43.379Z,2.20
2023-05-03T21:14:46.322Z,2.67
2023-05-03T21:17:49.027Z,2.50
2023-05-03T21:20:54.448Z,2.67
2023-05-03T21:23:57.248Z,2.77
2023-05-03T21:27:02.693Z,2.43
2023-05-03T21:30:06.401Z,2.90
2023-05-03T21:33:09.391Z,2.60
2023-05-03T21:36:12.577Z,2.80
2023-05-03T21:39:15.353Z,2.80
2023-05-03T21:42:19.453Z,2.80
2023-05-03T21:45:23.239Z,2.57
2023-05-03T21:48:26.420Z,2.80
2023-05-03T21:51:29.137Z,2.90
2023-05-03T21:54:31.888Z,2.63
2023-05-03T21:57:36.761Z,2.80
2023-05-03T22:00:40.467Z,2.77
2023-05-03T22:03:43.322Z,3.23
2023-05-03T22:06:47.063Z,4.53
2023-05-03T22:09:49.844Z,3.50
2023-05-03T22:12:54.035Z,3.73
2023-05-03T22:15:56.831Z,4.23
2023-05-03T22:18:59.542Z,4.80
2023-05-03T22:22:02.507Z,3.70
2023-05-03T22:25:06.739Z,3.27
2023-05-03T22:28:10.877Z,2.80
2023-05-03T22:31:13.710Z,3.07
2023-05-03T22:34:16.909Z,4.37
2023-05-03T22:37:19.653Z,3.37
2023-05-03T22:40:22.500Z,3.07
2023-05-03T22:43:26.821Z,3.10
2023-05-03T22:46:29.536Z,3.13
2023-05-03T22:49:32.246Z,3.03
2023-05-03T22:52:35.114Z,2.90
2023-05-03T22:55:37.970Z,3.30
2023-05-03T22:58:42.127Z,3.40
2023-05-03T23:01:46.418Z,2.87
2023-05-03T23:04:49.177Z,2.93
2023-05-03T23:07:52.347Z,3.17
2023-05-03T23:10:57.464Z,3.30
2023-05-03T23:14:01.547Z,3.40
2023-05-03T23:17:04.543Z,3.20
2023-05-03T23:20:09.991Z,3.50
2023-05-03T23:23:12.794Z,3.30
2023-05-03T23:26:15.560Z,3.37
2023-05-03T23:29:20.122Z,3.70
2023-05-03T23:32:23.376Z,3.70
2023-05-03T23:35:26.842Z,3.23
2023-05-03T23:38:29.603Z,3.90
2023-05-03T23:41:33.994Z,3.80
2023-05-03T23:44:50.895Z,3.17
2023-05-03T23:47:56.349Z,2.90
2023-05-03T23:50:59.106Z,3.30
2023-05-03T23:54:02.346Z,3.33
2023-05-03T23:57:05.090Z,3.33
